Time;durP1;ratioP1;P1;durP2;ratioP2;P2;SDS_P1;SDS_P2;PMS_P1;PMS_P2;Temp;Humidity;BMP_temperature;BMP_pressure;BME280_temperature;BME280_humidity;BME280_pressure;Samples;Min_cycle;Max_cycle;Signal;HPM_P1;HPM_P2
2022/02/21 00:00:57;;;;;;;19.92;13.32;;;15.10;99.90;;;;;;4974477;28;20071;-58
2022/02/21 00:03:25;;;;;;;21.70;11.75;;;15.10;99.90;;;;;;4965698;28;20047;-57
2022/02/21 00:05:53;;;;;;;18.95;11.07;;;15.10;99.90;;;;;;4973801;28;20053;-57
2022/02/21 00:08:20;;;;;;;26.10;12.38;;;15.10;99.90;;;;;;4970985;28;20059;-56
2022/02/21 00:10:48;;;;;;;20.75;11.73;;;15.10;99.90;;;;;;4968254;28;20043;-59
2022/02/21 00:13:15;;;;;;;20.30;12.70;;;15.10;99.90;;;;;;4972811;28;20038;-56
2022/02/21 00:15:43;;;;;;;30.40;14.68;;;15.00;99.90;;;;;;4985780;28;20061;-57
2022/02/21 00:18:11;;;;;;;26.05;14.38;;;15.00;99.90;;;;;;4974370;28;20049;-54
2022/02/21 00:20:38;;;;;;;31.77;15.98;;;15.00;99.90;;;;;;4972945;28;20149;-59
2022/02/21 00:23:07;;;;;;;24.02;16.73;;;15.00;99.90;;;;;;4974009;28;20039;-57
2022/02/21 00:25:35;;;;;;;26.70;15.57;;;15.00;99.90;;;;;;4973785;28;20062;-58
2022/02/21 00:28:03;;;;;;;22.10;13.25;;;14.90;99.90;;;;;;4973640;28;20477;-57
2022/02/21 00:30:31;;;;;;;23.77;14.55;;;14.90;99.90;;;;;;4974357;28;20391;-57
2022/02/21 00:32:58;;;;;;;20.17;11.90;;;14.90;99.90;;;;;;4973812;28;20046;-56
2022/02/21 00:35:26;;;;;;;21.60;11.85;;;14.90;99.90;;;;;;4973809;28;20039;-53
2022/02/21 00:37:53;;;;;;;18.48;12.13;;;14.80;99.90;;;;;;4974663;28;20042;-57
2022/02/21 00:40:21;;;;;;;18.25;11.68;;;14.80;99.90;;;;;;4972567;28;20449;-57
2022/02/21 00:42:48;;;;;;;17.58;10.02;;;14.80;99.90;;;;;;4969861;28;20075;-59
2022/02/21 00:45:17;;;;;;;20.02;10.52;;;14.80;99.90;;;;;;4974509;28;20039;-59
2022/02/21 00:47:44;;;;;;;14.75;9.55;;;14.80;99.90;;;;;;4972861;28;20047;-56
2022/02/21 00:50:12;;;;;;;12.98;9.23;;;14.80;99.90;;;;;;4973182;28;20049;-56
2022/02/21 00:52:39;;;;;;;17.05;9.05;;;14.70;99.90;;;;;;4973542;28;20050;-59
2022/02/21 00:55:07;;;;;;;17.75;10.52;;;14.70;99.90;;;;;;4974645;28;20042;-55
2022/02/21 00:57:35;;;;;;;16.98;9.15;;;14.70;99.90;;;;;;4972659;28;20049;-55
2022/02/21 01:00:05;;;;;;;14.82;7.55;;;14.70;99.90;;;;;;4970077;28;20062;-58
2022/02/21 01:02:33;;;;;;;13.52;8.38;;;14.70;99.90;;;;;;4971917;28;20035;-55
2022/02/21 01:05:01;;;;;;;12.95;9.25;;;14.70;99.90;;;;;;4989298;28;20133;-59
2022/02/21 01:07:29;;;;;;;15.18;9.85;;;14.70;99.90;;;;;;4968798;28;20575;-55
2022/02/21 01:09:56;;;;;;;15.27;10.88;;;14.60;99.90;;;;;;4971518;28;20135;-56
2022/02/21 01:12:24;;;;;;;21.73;12.23;;;14.60;99.90;;;;;;4973323;28;20085;-57
2022/02/21 01:14:52;;;;;;;21.63;13.00;;;14.50;99.90;;;;;;4973134;28;20050;-59
2022/02/21 01:17:22;;;;;;;20.58;11.75;;;14.50;99.90;;;;;;4971452;28;20057;-57
2022/02/21 01:19:51;;;;;;;20.08;13.32;;;14.40;99.90;;;;;;4971761;28;20121;-57
2022/02/21 01:22:18;;;;;;;20.48;12.90;;;14.40;99.90;;;;;;4972436;28;20039;-56
2022/02/21 01:24:46;;;;;;;22.10;13.27;;;14.40;99.90;;;;;;4972392;28;20035;-56
2022/02/21 01:27:14;;;;;;;22.10;14.07;;;14.30;99.90;;;;;;4956450;28;20081;-58
2022/02/21 01:29:42;;;;;;;18.08;14.02;;;14.30;99.90;;;;;;4971385;28;20053;-57
2022/02/21 01:32:10;;;;;;;24.60;13.68;;;14.30;99.90;;;;;;4939203;28;20055;-56
2022/02/21 01:34:38;;;;;;;21.10;14.60;;;14.30;99.90;;;;;;4969129;28;20134;-57
2022/02/21 01:37:05;;;;;;;22.20;13.80;;;14.30;99.90;;;;;;4973036;28;20121;-54
2022/02/21 01:39:34;;;;;;;21.98;12.45;;;14.20;99.90;;;;;;4975471;28;20097;-56
2022/02/21 01:42:03;;;;;;;19.35;11.93;;;14.20;99.90;;;;;;4972044;28;20082;-58
2022/02/21 01:44:43;;;;;;;18.92;13.13;;;14.20;99.90;;;;;;4972646;28;20054;-56
2022/02/21 01:47:13;;;;;;;15.73;12.00;;;14.20;99.90;;;;;;4971641;28;20049;-60
2022/02/21 01:49:41;;;;;;;25.67;12.70;;;14.10;99.90;;;;;;4966621;28;20047;-51
2022/02/21 01:52:10;;;;;;;17.15;12.13;;;14.10;99.90;;;;;;4954069;28;20074;-58
2022/02/21 01:54:37;;;;;;;23.95;13.88;;;14.10;99.90;;;;;;4971715;28;20097;-55
2022/02/21 01:57:06;;;;;;;25.85;13.57;;;14.10;99.90;;;;;;4973534;28;20045;-50
2022/02/21 01:59:35;;;;;;;20.90;13.63;;;14.00;99.90;;;;;;4972437;28;20417;-54
2022/02/21 02:02:03;;;;;;;18.90;11.85;;;14.00;99.90;;;;;;4972046;28;20050;-54
2022/02/21 02:04:31;;;;;;;20.80;13.10;;;14.00;99.90;;;;;;4974109;28;20120;-52
2022/02/21 02:07:03;;;;;;;20.65;12.40;;;14.00;99.90;;;;;;4974458;28;20402;-54
2022/02/21 02:09:31;;;;;;;17.92;12.07;;;14.00;99.90;;;;;;4973711;28;20043;-56
2022/02/21 02:11:58;;;;;;;21.08;12.60;;;14.00;99.90;;;;;;4975165;28;20043;-54
2022/02/21 02:14:37;;;;;;;23.20;13.32;;;14.00;99.90;;;;;;4974874;28;20051;-51
2022/02/21 02:17:11;;;;;;;19.20;11.88;;;13.90;99.90;;;;;;4974088;28;20051;-55
2022/02/21 02:19:41;;;;;;;17.85;12.95;;;13.90;99.90;;;;;;4942041;28;20050;-55
2022/02/21 02:22:16;;;;;;;19.70;12.25;;;13.90;99.90;;;;;;4973815;28;20039;-56
2022/02/21 02:24:46;;;;;;;24.58;12.73;;;13.90;99.90;;;;;;4973734;28;20053;-55
2022/02/21 02:27:15;;;;;;;18.65;11.82;;;13.90;99.90;;;;;;4975099;28;20050;-56
2022/02/21 02:29:45;;;;;;;21.38;12.65;;;13.90;99.90;;;;;;4973757;28;20053;-54
2022/02/21 02:32:13;;;;;;;14.88;11.63;;;13.90;99.90;;;;;;4974963;28;20042;-55
2022/02/21 02:34:45;;;;;;;17.80;12.25;;;13.90;99.90;;;;;;4973845;28;20050;-54
2022/02/21 02:37:14;;;;;;;22.30;13.38;;;13.90;99.90;;;;;;4973800;28;20181;-55
2022/02/21 02:39:42;;;;;;;22.83;14.30;;;13.90;99.90;;;;;;4974244;28;20513;-54
2022/02/21 02:42:10;;;;;;;17.58;13.13;;;13.90;99.90;;;;;;4973825;28;20053;-54
2022/02/21 02:44:38;;;;;;;23.90;14.43;;;13.90;99.90;;;;;;4977416;28;20606;-53
2022/02/21 02:47:10;;;;;;;25.58;13.98;;;13.80;99.90;;;;;;4978712;28;20051;-55
2022/02/21 02:49:38;;;;;;;22.55;14.55;;;13.80;99.90;;;;;;4977474;28;20039;-55
2022/02/21 02:52:07;;;;;;;23.50;13.73;;;13.80;99.90;;;;;;4978561;28;20477;-54
2022/02/21 02:54:34;;;;;;;22.25;13.25;;;13.80;99.90;;;;;;4961424;28;20053;-56
2022/02/21 02:57:05;;;;;;;18.75;13.02;;;13.90;99.90;;;;;;4978651;28;20505;-52
2022/02/21 02:59:32;;;;;;;19.58;14.15;;;13.90;99.90;;;;;;4977405;28;20062;-55
2022/02/21 03:02:00;;;;;;;24.70;16.92;;;13.90;99.90;;;;;;4977440;28;20098;-53
2022/02/21 03:04:27;;;;;;;31.73;18.27;;;13.90;99.90;;;;;;4977171;28;20051;-54
2022/02/21 03:06:58;;;;;;;27.38;18.40;;;13.90;99.90;;;;;;4978261;28;20047;-56
2022/02/21 03:09:26;;;;;;;22.42;16.20;;;14.00;99.90;;;;;;4978356;28;20047;-53
2022/02/21 03:11:55;;;;;;;25.60;17.60;;;14.00;99.90;;;;;;4978465;28;20074;-55
2022/02/21 03:14:23;;;;;;;23.33;15.52;;;14.00;99.90;;;;;;4977118;28;20043;-54
2022/02/21 03:16:51;;;;;;;24.85;15.50;;;14.00;99.90;;;;;;4960979;28;20058;-53
2022/02/21 03:19:19;;;;;;;24.10;13.20;;;14.00;99.90;;;;;;4961022;28;20055;-53
2022/02/21 03:21:47;;;;;;;21.05;13.48;;;14.00;99.90;;;;;;4976899;28;20047;-54
2022/02/21 03:24:15;;;;;;;22.08;14.18;;;14.10;99.90;;;;;;4945342;28;20077;-56
2022/02/21 03:26:42;;;;;;;26.80;13.20;;;14.10;99.90;;;;;;4976822;28;20057;-56
2022/02/21 03:29:10;;;;;;;19.75;12.07;;;14.10;99.90;;;;;;4977907;28;20101;-56
2022/02/21 03:31:37;;;;;;;22.20;13.32;;;14.10;99.90;;;;;;4977825;28;20398;-56
2022/02/21 03:34:05;;;;;;;17.77;11.73;;;14.10;99.90;;;;;;4976704;28;20099;-55
2022/02/21 03:36:33;;;;;;;25.42;14.23;;;14.10;99.90;;;;;;4976920;28;20560;-55
2022/02/21 03:39:00;;;;;;;29.58;14.63;;;14.10;99.90;;;;;;4977872;28;20078;-56
2022/02/21 03:41:29;;;;;;;21.85;12.00;;;14.00;99.90;;;;;;4976803;28;20489;-56
2022/02/21 03:43:56;;;;;;;19.55;11.82;;;14.00;99.90;;;;;;4977863;28;20061;-54
2022/02/21 03:46:26;;;;;;;21.00;11.70;;;14.00;99.90;;;;;;4960828;28;20122;-54
2022/02/21 03:48:54;;;;;;;15.13;11.27;;;14.00;99.90;;;;;;4976269;28;20053;-55
2022/02/21 03:51:21;;;;;;;29.55;12.82;;;14.00;99.90;;;;;;4976599;28;20102;-57
2022/02/21 03:53:49;;;;;;;15.60;11.27;;;14.00;99.90;;;;;;4976207;28;20570;-54
2022/02/21 03:56:16;;;;;;;25.35;12.70;;;14.00;99.90;;;;;;4977464;28;20045;-55
2022/02/21 03:58:45;;;;;;;19.02;11.35;;;13.90;99.90;;;;;;4977422;28;20051;-56
2022/02/21 04:01:13;;;;;;;23.92;11.95;;;13.90;99.90;;;;;;4976161;28;20142;-57
2022/02/21 04:03:40;;;;;;;17.45;10.55;;;13.90;99.90;;;;;;4976663;28;20121;-54
2022/02/21 04:06:08;;;;;;;25.50;14.13;;;13.90;99.90;;;;;;4977287;28;20049;-52
2022/02/21 04:08:35;;;;;;;28.15;17.90;;;13.90;99.90;;;;;;4975835;28;20074;-54
2022/02/21 04:11:03;;;;;;;30.10;16.15;;;13.90;99.90;;;;;;4977256;28;20409;-54
2022/02/21 04:13:31;;;;;;;25.35;17.95;;;13.90;99.90;;;;;;4977120;28;20098;-55
2022/02/21 04:15:58;;;;;;;27.50;15.95;;;13.80;99.90;;;;;;4977016;28;20054;-55
2022/02/21 04:18:26;;;;;;;20.92;14.07;;;13.80;99.90;;;;;;4975777;28;20050;-56
2022/02/21 04:20:54;;;;;;;20.88;13.05;;;13.80;99.90;;;;;;4976004;28;20046;-55
2022/02/21 04:23:21;;;;;;;26.80;14.20;;;13.80;99.90;;;;;;4976829;28;20102;-51
2022/02/21 04:25:49;;;;;;;19.15;13.70;;;13.80;99.90;;;;;;4976989;28;20054;-54
2022/02/21 04:28:17;;;;;;;19.48;12.93;;;13.80;99.90;;;;;;4959707;28;20138;-56
2022/02/21 04:30:45;;;;;;;19.75;13.57;;;13.80;99.90;;;;;;4959594;28;20050;-54
2022/02/21 04:33:12;;;;;;;18.88;12.50;;;13.80;99.90;;;;;;4977034;28;20047;-56
2022/02/21 04:35:40;;;;;;;22.67;15.48;;;13.90;99.90;;;;;;4975593;28;20051;-55
2022/02/21 04:38:12;;;;;;;21.88;14.02;;;13.80;99.90;;;;;;4976839;28;20054;-54
2022/02/21 04:40:39;;;;;;;25.58;14.32;;;13.80;99.90;;;;;;4975480;28;20066;-53
2022/02/21 04:43:07;;;;;;;23.48;13.63;;;13.80;99.90;;;;;;4975502;28;20043;-55
2022/02/21 04:45:37;;;;;;;21.52;12.88;;;13.90;99.90;;;;;;4975351;28;20039;-54
2022/02/21 04:48:04;;;;;;;21.17;13.40;;;13.80;99.90;;;;;;4975536;28;20085;-54
2022/02/21 04:50:33;;;;;;;23.35;14.63;;;13.90;99.90;;;;;;4976405;28;20051;-55
2022/02/21 04:53:01;;;;;;;23.27;12.95;;;13.90;99.90;;;;;;4975376;28;20067;-56
2022/02/21 04:55:28;;;;;;;27.27;14.88;;;13.90;99.90;;;;;;4975355;28;20039;-55
2022/02/21 04:57:56;;;;;;;22.65;13.10;;;13.90;99.90;;;;;;4976395;28;20462;-53
2022/02/21 05:00:23;;;;;;;22.25;13.10;;;13.90;99.90;;;;;;4975143;28;20121;-56
2022/02/21 05:02:51;;;;;;;21.27;11.73;;;13.90;99.90;;;;;;4975547;28;20382;-55
2022/02/21 05:05:18;;;;;;;22.85;13.90;;;13.90;99.90;;;;;;4974498;28;20058;-56
2022/02/21 05:07:46;;;;;;;21.13;12.73;;;13.90;99.90;;;;;;4976170;28;20039;-54
2022/02/21 05:10:14;;;;;;;27.98;14.23;;;13.90;99.90;;;;;;4974679;28;20050;-56
2022/02/21 05:12:42;;;;;;;23.05;14.90;;;14.00;99.90;;;;;;4974943;28;20055;-54
2022/02/21 05:15:10;;;;;;;22.95;14.35;;;13.90;99.90;;;;;;4975054;28;20385;-55
2022/02/21 05:17:39;;;;;;;22.15;13.43;;;13.90;99.90;;;;;;4975880;28;20117;-56
2022/02/21 05:20:08;;;;;;;24.20;14.70;;;13.90;99.90;;;;;;4974808;28;20035;-53
2022/02/21 05:22:36;;;;;;;17.17;11.95;;;13.90;99.90;;;;;;4975805;28;20081;-53
2022/02/21 05:25:05;;;;;;;21.60;13.07;;;13.90;99.90;;;;;;4974682;28;20046;-53
2022/02/21 05:27:34;;;;;;;21.10;12.82;;;13.80;99.90;;;;;;4974622;28;20446;-54
2022/02/21 05:30:04;;;;;;;20.17;13.38;;;13.80;99.90;;;;;;4975786;28;20097;-55
2022/02/21 05:32:32;;;;;;;19.23;13.07;;;13.70;99.90;;;;;;4974749;28;20082;-53
2022/02/21 05:35:00;;;;;;;21.88;11.88;;;13.60;99.90;;;;;;4975736;28;20557;-56
2022/02/21 05:37:30;;;;;;;16.92;12.15;;;13.50;99.90;;;;;;4975569;28;20113;-55
2022/02/21 05:39:57;;;;;;;20.85;12.45;;;13.50;99.90;;;;;;4974490;28;20039;-55
2022/02/21 05:42:25;;;;;;;19.88;12.65;;;13.40;99.90;;;;;;4974522;28;20054;-52
2022/02/21 05:44:52;;;;;;;18.80;12.10;;;13.40;99.90;;;;;;4974335;28;20066;-56
2022/02/21 05:47:22;;;;;;;20.60;11.25;;;13.40;99.90;;;;;;4958397;28;20070;-56
2022/02/21 05:49:50;;;;;;;17.40;13.07;;;13.40;99.90;;;;;;4975585;28;20042;-56
2022/02/21 05:52:18;;;;;;;24.98;11.98;;;13.40;99.90;;;;;;4942246;28;20528;-56
2022/02/21 05:54:45;;;;;;;20.55;12.23;;;13.20;99.90;;;;;;4974334;28;20082;-55
2022/02/21 05:57:13;;;;;;;17.38;12.23;;;13.20;99.90;;;;;;4974742;28;20047;-56
2022/02/21 05:59:43;;;;;;;19.27;12.52;;;13.10;99.90;;;;;;4974091;28;20062;-55
2022/02/21 06:02:11;;;;;;;16.88;13.32;;;13.10;99.90;;;;;;4974121;28;20093;-53
2022/02/21 06:04:39;;;;;;;18.55;11.60;;;12.90;99.90;;;;;;4975135;28;20409;-55
2022/02/21 06:07:06;;;;;;;18.58;11.20;;;12.80;99.90;;;;;;4974020;28;20077;-55
2022/02/21 06:09:34;;;;;;;17.33;10.50;;;12.80;99.90;;;;;;4973748;28;20079;-56
2022/02/21 06:12:01;;;;;;;16.48;9.95;;;12.90;99.90;;;;;;4975196;28;20493;-55
2022/02/21 06:14:29;;;;;;;21.92;12.27;;;13.10;99.90;;;;;;4973808;28;20497;-57
2022/02/21 06:16:56;;;;;;;26.77;10.27;;;13.10;99.90;;;;;;4974393;28;20557;-51
2022/02/21 06:19:24;;;;;;;23.70;11.90;;;13.10;99.90;;;;;;4957443;28;20049;-56
2022/02/21 06:21:52;;;;;;;13.93;10.02;;;13.20;99.90;;;;;;4974997;28;20129;-57
2022/02/21 06:24:19;;;;;;;20.48;10.05;;;13.10;99.90;;;;;;4973788;28;20039;-56
2022/02/21 06:26:47;;;;;;;15.57;9.45;;;13.10;99.90;;;;;;4975026;28;20039;-55
2022/02/21 06:29:15;;;;;;;20.33;9.60;;;12.90;99.90;;;;;;4973707;28;20079;-56
2022/02/21 06:31:42;;;;;;;22.55;11.52;;;13.00;99.90;;;;;;4973734;28;20134;-57
2022/02/21 06:34:10;;;;;;;18.90;10.05;;;13.00;99.90;;;;;;4974803;28;20054;-55
2022/02/21 06:36:38;;;;;;;18.40;9.75;;;13.00;99.90;;;;;;4973514;28;20046;-55
2022/02/21 06:39:09;;;;;;;20.25;9.50;;;13.10;99.90;;;;;;4958253;28;20042;-56
2022/02/21 06:41:36;;;;;;;17.55;10.18;;;13.20;99.90;;;;;;4973751;28;20041;-56
2022/02/21 06:44:04;;;;;;;14.48;9.20;;;13.10;99.90;;;;;;4941796;28;20074;-56
2022/02/21 06:46:32;;;;;;;17.27;10.15;;;13.20;99.90;;;;;;4974788;28;20047;-55
2022/02/21 06:49:00;;;;;;;17.02;10.13;;;13.10;99.90;;;;;;4973478;28;20104;-56
2022/02/21 06:51:30;;;;;;;24.55;13.45;;;13.10;99.90;;;;;;4974801;28;20095;-55
2022/02/21 06:53:57;;;;;;;17.15;10.13;;;13.10;99.90;;;;;;4957643;28;20046;-56
2022/02/21 06:56:25;;;;;;;17.50;9.10;;;13.20;99.90;;;;;;4973797;28;20058;-56
2022/02/21 06:58:52;;;;;;;17.48;8.73;;;13.20;99.90;;;;;;4973409;28;20054;-57
2022/02/21 07:01:21;;;;;;;14.07;9.57;;;13.30;99.90;;;;;;4973624;28;20049;-56
2022/02/21 07:03:52;;;;;;;19.15;10.57;;;13.30;99.90;;;;;;4974808;28;20046;-55
2022/02/21 07:06:22;;;;;;;15.38;9.93;;;13.30;99.90;;;;;;4957960;28;20031;-56
2022/02/21 07:08:49;;;;;;;14.32;9.40;;;13.30;99.90;;;;;;4973360;28;20143;-55
2022/02/21 07:11:17;;;;;;;21.15;10.40;;;13.30;99.90;;;;;;4969205;28;20038;-58
2022/02/21 07:13:45;;;;;;;18.42;8.43;;;13.40;99.90;;;;;;4971368;28;20050;-56
2022/02/21 07:16:13;;;;;;;13.45;10.27;;;13.40;99.90;;;;;;4972983;28;20043;-56
2022/02/21 07:18:40;;;;;;;16.52;8.68;;;13.40;99.90;;;;;;4955590;28;20386;-54
2022/02/21 07:21:08;;;;;;;18.63;10.10;;;13.40;99.90;;;;;;4971576;28;20175;-54
2022/02/21 07:23:35;;;;;;;20.52;9.82;;;13.40;99.90;;;;;;4970319;28;20090;-56
2022/02/21 07:26:04;;;;;;;18.30;9.30;;;13.60;99.90;;;;;;4971700;28;20058;-53
2022/02/21 07:28:32;;;;;;;14.32;7.80;;;13.60;99.90;;;;;;4971002;28;20038;-57
2022/02/21 07:31:00;;;;;;;18.73;10.25;;;13.70;99.90;;;;;;4969866;28;20095;-57
2022/02/21 07:33:27;;;;;;;19.48;8.82;;;13.90;99.90;;;;;;4984045;28;20042;-55
2022/02/21 07:35:56;;;;;;;16.48;9.32;;;13.90;99.90;;;;;;4976633;28;20568;-57
2022/02/21 07:38:24;;;;;;;13.13;8.10;;;14.00;99.90;;;;;;4960892;28;20047;-58
2022/02/21 07:40:51;;;;;;;17.30;8.70;;;14.10;99.90;;;;;;4976564;28;20070;-56
2022/02/21 07:43:19;;;;;;;18.80;9.00;;;14.40;99.90;;;;;;4977728;28;20070;-55
2022/02/21 07:45:46;;;;;;;16.60;9.15;;;14.70;99.90;;;;;;4976361;28;20046;-56
2022/02/21 07:48:14;;;;;;;12.73;8.20;;;15.00;99.90;;;;;;4977627;28;20031;-56
2022/02/21 07:50:42;;;;;;;16.77;8.10;;;15.40;99.90;;;;;;4977540;28;20458;-56
2022/02/21 07:53:09;;;;;;;15.70;8.23;;;15.90;99.90;;;;;;4960595;28;20046;-56
2022/02/21 07:55:37;;;;;;;15.50;6.55;;;16.20;99.90;;;;;;4976392;28;20047;-57
2022/02/21 07:58:04;;;;;;;15.82;7.53;;;16.40;99.90;;;;;;4976377;28;20445;-56
2022/02/21 08:00:32;;;;;;;11.02;7.13;;;16.60;99.90;;;;;;4976432;28;20055;-57
2022/02/21 08:03:00;;;;;;;12.45;6.57;;;16.70;99.90;;;;;;4976161;28;20078;-56
2022/02/21 08:05:27;;;;;;;14.65;7.60;;;17.00;99.90;;;;;;4976130;28;20050;-57
2022/02/21 08:07:55;;;;;;;11.48;6.05;;;17.10;99.90;;;;;;4977476;28;20069;-57
2022/02/21 08:10:24;;;;;;;10.32;6.28;;;17.30;99.90;;;;;;4960369;28;20042;-57
2022/02/21 08:12:52;;;;;;;11.60;6.13;;;17.50;99.90;;;;;;4977118;28;20142;-57
2022/02/21 08:15:19;;;;;;;9.90;5.68;;;17.40;99.90;;;;;;4977441;28;20126;-57
2022/02/21 08:17:47;;;;;;;12.32;6.20;;;17.50;99.90;;;;;;4976160;28;20051;-57
2022/02/21 08:20:19;;;;;;;10.35;4.75;;;17.70;99.90;;;;;;4975902;28;20042;-57
2022/02/21 08:22:47;;;;;;;13.32;5.68;;;17.70;99.90;;;;;;4960032;28;20130;-57
2022/02/21 08:25:16;;;;;;;9.63;5.32;;;18.00;99.90;;;;;;4976918;28;20050;-55
2022/02/21 08:27:44;;;;;;;13.65;6.63;;;17.70;99.90;;;;;;4975808;28;20043;-57
2022/02/21 08:30:16;;;;;;;10.52;5.30;;;17.90;99.90;;;;;;4977112;28;20425;-57
2022/02/21 08:32:44;;;;;;;10.05;5.50;;;18.10;99.90;;;;;;4976920;28;20098;-56
2022/02/21 08:35:12;;;;;;;11.57;6.18;;;17.80;99.90;;;;;;4976015;28;20054;-56
2022/02/21 08:37:40;;;;;;;17.92;5.68;;;18.00;99.90;;;;;;4976742;28;20131;-56
2022/02/21 08:40:10;;;;;;;9.85;4.45;;;18.00;99.90;;;;;;4976052;28;20094;-57
2022/02/21 08:42:38;;;;;;;7.45;4.88;;;17.90;99.90;;;;;;4975095;28;20050;-55
2022/02/21 08:45:08;;;;;;;7.07;5.18;;;17.90;99.90;;;;;;4975257;28;20043;-58
2022/02/21 08:47:35;;;;;;;8.07;4.63;;;18.10;99.90;;;;;;4976444;28;20066;-57
2022/02/21 08:50:04;;;;;;;8.98;4.20;;;18.20;99.90;;;;;;4975520;28;20174;-56
2022/02/21 08:52:32;;;;;;;10.93;5.50;;;18.20;99.90;;;;;;4976427;28;20042;-57
2022/02/21 08:55:00;;;;;;;12.18;5.60;;;18.10;99.90;;;;;;4976661;28;20047;-57
2022/02/21 08:57:27;;;;;;;7.55;4.82;;;18.30;99.90;;;;;;4976325;28;20125;-56
2022/02/21 08:59:55;;;;;;;8.18;4.88;;;18.30;99.90;;;;;;4976341;28;20077;-57
2022/02/21 09:02:24;;;;;;;8.25;5.32;;;18.20;99.90;;;;;;4976355;28;20039;-57
2022/02/21 09:05:11;;;;;;;7.53;4.72;;;18.20;99.90;;;;;;4976238;28;20046;-58
2022/02/21 09:07:39;;;;;;;5.85;3.70;;;18.10;99.90;;;;;;4975093;28;20035;-57
2022/02/21 09:10:07;;;;;;;6.47;3.78;;;18.30;99.90;;;;;;4974600;28;20117;-57
2022/02/21 09:12:34;;;;;;;8.98;3.83;;;18.30;99.90;;;;;;4976123;28;20069;-58
2022/02/21 09:15:03;;;;;;;9.88;4.47;;;18.50;99.90;;;;;;4975006;28;20516;-57
2022/02/21 09:17:30;;;;;;;6.15;3.55;;;18.70;99.80;;;;;;4974845;28;20398;-57
2022/02/21 09:19:58;;;;;;;5.57;3.40;;;18.70;99.40;;;;;;4975847;28;20053;-57
2022/02/21 09:22:25;;;;;;;14.63;3.63;;;18.70;98.90;;;;;;4975883;28;20556;-57
2022/02/21 09:24:53;;;;;;;8.73;3.88;;;18.80;98.90;;;;;;4975879;28;20453;-56
2022/02/21 09:27:21;;;;;;;6.35;3.47;;;18.80;98.50;;;;;;4974794;28;20057;-59
2022/02/21 09:29:49;;;;;;;8.35;3.05;;;18.70;97.90;;;;;;4974776;28;20035;-58
2022/02/21 09:32:17;;;;;;;8.85;4.80;;;18.70;97.20;;;;;;4974505;28;20047;-59
2022/02/21 09:34:44;;;;;;;6.15;3.45;;;18.80;96.80;;;;;;4974538;28;20035;-58
2022/02/21 09:37:12;;;;;;;7.43;2.70;;;18.60;95.90;;;;;;4974575;28;20050;-58
2022/02/21 09:39:40;;;;;;;6.03;2.83;;;18.50;95.70;;;;;;4974726;28;20141;-58
2022/02/21 09:42:07;;;;;;;5.03;2.97;;;18.60;96.10;;;;;;4975650;28;20133;-57
2022/02/21 09:44:35;;;;;;;6.38;3.10;;;18.70;96.10;;;;;;4974430;28;20046;-58
2022/02/21 09:47:04;;;;;;;5.80;3.20;;;19.00;96.20;;;;;;4975415;28;20059;-58
2022/02/21 09:49:32;;;;;;;4.80;2.25;;;19.20;95.80;;;;;;4974547;28;20035;-57
2022/02/21 09:52:00;;;;;;;6.03;3.13;;;19.30;95.00;;;;;;4974255;28;20067;-56
2022/02/21 09:54:27;;;;;;;7.22;3.42;;;19.40;94.70;;;;;;4975171;28;20072;-58
2022/02/21 09:56:56;;;;;;;6.40;2.95;;;19.50;94.50;;;;;;4969506;28;20054;-58
2022/02/21 09:59:24;;;;;;;6.78;3.17;;;19.70;94.70;;;;;;4969516;28;20051;-58
2022/02/21 10:01:52;;;;;;;5.10;3.30;;;19.50;94.40;;;;;;4971387;28;20063;-57
2022/02/21 10:04:27;;;;;;;5.60;3.50;;;19.60;94.50;;;;;;4971046;28;20417;-57
2022/02/21 10:06:56;;;;;;;7.13;3.47;;;19.50;94.40;;;;;;4972782;28;20137;-57
2022/02/21 10:09:26;;;;;;;9.80;4.28;;;19.50;94.50;;;;;;4971934;28;20055;-58
2022/02/21 10:11:59;;;;;;;5.32;3.40;;;19.50;94.90;;;;;;4972367;28;20042;-57
2022/02/21 10:14:30;;;;;;;5.03;3.08;;;19.40;94.90;;;;;;4972057;28;20122;-58
2022/02/21 10:17:00;;;;;;;4.45;2.90;;;19.50;95.20;;;;;;4972385;28;20405;-58
2022/02/21 10:19:38;;;;;;;5.30;3.50;;;19.50;95.30;;;;;;4972277;28;20129;-58
2022/02/21 10:22:12;;;;;;;11.40;4.63;;;19.40;95.40;;;;;;4972663;28;20058;-58
2022/02/21 10:24:50;;;;;;;11.75;4.10;;;19.40;95.50;;;;;;4971288;28;20050;-58
2022/02/21 10:27:26;;;;;;;6.22;4.10;;;19.50;95.80;;;;;;4974028;28;20047;-57
2022/02/21 10:29:54;;;;;;;;;;;19.50;96.00;;;;;;4960750;28;20412;-58
2022/02/21 10:32:24;;;;;;;7.50;3.83;;;19.60;96.20;;;;;;4972104;28;19953;-58
2022/02/21 10:34:53;;;;;;;6.07;3.83;;;19.50;96.30;;;;;;4973159;28;20038;-57
2022/02/21 10:37:26;;;;;;;8.35;3.30;;;19.10;96.90;;;;;;4973169;28;20050;-59
2022/02/21 10:40:10;;;;;;;8.95;2.95;;;18.70;97.00;;;;;;4966695;28;20050;-57
2022/02/21 10:42:38;;;;;;;6.45;3.58;;;18.80;97.20;;;;;;4968716;28;20035;-58
2022/02/21 10:45:11;;;;;;;9.07;4.05;;;18.50;97.60;;;;;;4971140;28;20050;-58
2022/02/21 10:47:40;;;;;;;9.55;4.22;;;18.30;98.00;;;;;;4970227;28;20043;-61
2022/02/21 10:50:10;;;;;;;6.07;4.32;;;18.20;98.20;;;;;;4972331;28;20046;-57
2022/02/21 10:52:39;;;;;;;7.97;3.83;;;18.10;98.80;;;;;;4971708;28;20046;-57
2022/02/21 10:55:11;;;;;;;9.05;4.10;;;18.20;98.90;;;;;;4970797;28;20498;-58
2022/02/21 10:57:43;;;;;;;6.70;3.95;;;18.10;98.80;;;;;;4970217;28;20053;-61
2022/02/21 11:00:12;;;;;;;7.70;3.58;;;18.00;99.20;;;;;;4968167;28;20043;-58
2022/02/21 11:02:42;;;;;;;5.35;4.20;;;18.10;99.10;;;;;;4968340;28;20078;-61
2022/02/21 11:05:11;;;;;;;9.23;4.45;;;17.90;99.10;;;;;;4965087;28;20094;-59
2022/02/21 11:07:41;;;;;;;8.15;5.05;;;18.10;99.70;;;;;;4974889;28;20039;-59
2022/02/21 11:10:10;;;;;;;15.43;3.80;;;18.30;99.10;;;;;;4977060;28;20061;-59
2022/02/21 11:12:44;;;;;;;8.82;4.13;;;18.40;98.60;;;;;;4972773;28;20137;-60
2022/02/21 11:15:12;;;;;;;6.53;4.85;;;18.40;98.30;;;;;;4974661;28;20042;-59
2022/02/21 11:17:40;;;;;;;10.05;3.95;;;18.50;98.70;;;;;;4974060;28;20399;-59
2022/02/21 11:20:09;;;;;;;7.55;3.97;;;18.70;98.60;;;;;;4975489;28;20409;-59
2022/02/21 11:22:37;;;;;;;10.50;4.53;;;18.60;98.60;;;;;;4975194;28;20035;-59
2022/02/21 11:25:18;;;;;;;15.52;6.20;;;18.80;98.60;;;;;;4974514;28;20045;-60
2022/02/21 11:28:08;;;;;;;13.40;6.57;;;18.80;98.50;;;;;;4975274;28;20043;-58
2022/02/21 11:30:41;;;;;;;6.82;3.92;;;18.90;98.40;;;;;;4966481;28;20573;-59
2022/02/21 11:33:11;;;;;;;11.82;4.28;;;19.00;98.10;;;;;;4971871;28;20043;-59
2022/02/21 11:36:07;;;;;;;6.57;4.15;;;18.90;98.30;;;;;;4971204;28;22048;-59
2022/02/21 11:38:39;;;;;;;9.65;4.22;;;18.90;98.50;;;;;;4975754;28;20038;-59
2022/02/21 11:41:07;;;;;;;8.38;5.10;;;18.90;98.40;;;;;;4963572;28;20039;-59
2022/02/21 11:43:36;;;;;;;6.15;3.40;;;18.60;98.30;;;;;;4971285;28;20367;-59
2022/02/21 11:46:09;;;;;;;6.22;4.53;;;18.50;98.70;;;;;;4974497;28;20090;-59
2022/02/21 11:48:57;;;;;;;9.02;4.38;;;18.50;99.10;;;;;;4974224;28;20134;-63
2022/02/21 11:51:30;;;;;;;12.10;5.20;;;18.20;99.30;;;;;;4957828;28;20142;-60
2022/02/21 11:54:13;;;;;;;10.07;5.75;;;18.00;99.80;;;;;;4971658;28;20047;-60
2022/02/21 11:56:53;;;;;;;8.05;4.10;;;18.00;99.80;;;;;;4957996;28;20051;-59
2022/02/21 11:59:23;;;;;;;26.08;8.02;;;18.10;99.90;;;;;;4941264;29;20102;-59
2022/02/21 12:02:14;;;;;;;13.13;5.72;;;18.20;99.90;;;;;;4941136;29;20059;-59
2022/02/21 12:04:48;;;;;;;10.77;4.70;;;17.90;99.90;;;;;;4956655;28;20086;-59
2022/02/21 12:07:31;;;;;;;11.43;5.60;;;18.10;99.90;;;;;;4957908;28;20051;-59
2022/02/21 12:10:21;;;;;;;7.90;5.38;;;18.20;99.80;;;;;;4925255;29;20114;-59
2022/02/21 12:13:11;;;;;;;9.60;5.38;;;18.20;99.80;;;;;;4925413;29;20053;-59
2022/02/21 12:16:00;;;;;;;8.00;5.07;;;18.30;99.90;;;;;;4956619;28;20094;-59
2022/02/21 12:18:42;;;;;;;14.63;9.02;;;18.30;99.90;;;;;;4956716;29;20494;-59
2022/02/21 12:21:14;;;;;;;10.55;5.95;;;18.30;99.90;;;;;;4957874;28;20039;-58
2022/02/21 12:24:00;;;;;;;8.52;4.40;;;18.20;99.90;;;;;;4956362;29;20059;-58
2022/02/21 12:26:32;;;;;;;18.20;7.80;;;18.30;99.90;;;;;;4956222;28;20058;-59
2022/02/21 12:29:20;;;;;;;13.32;5.90;;;18.40;99.90;;;;;;4956736;28;20094;-59
2022/02/21 12:32:11;;;;;;;13.27;4.75;;;18.60;99.90;;;;;;4940710;29;20446;-59
2022/02/21 12:34:39;;;;;;;11.65;4.80;;;18.80;99.90;;;;;;4957638;28;20447;-59
2022/02/21 12:37:11;;;;;;;14.80;5.47;;;18.70;99.30;;;;;;4940619;29;20161;-59
2022/02/21 12:39:43;;;;;;;14.70;5.35;;;18.80;99.40;;;;;;4957381;28;20039;-59
2022/02/21 12:42:11;;;;;;;7.20;4.30;;;18.60;99.20;;;;;;4957427;29;20438;-59
2022/02/21 12:44:39;;;;;;;9.13;5.30;;;18.40;99.10;;;;;;4956202;29;20074;-60